Zenith Leader — 2ACU6 — position and weather

sailwx.info

Track history (hours):
 
Tides and Currents Weather Stations Pressure Air Temp Water Temp Dewpoint Dewpoint Depression Visibility Wind Speed Wind Dir Waves Ship Positions

Zenith Leader

Last reported at 2017-Apr-16 02:29 UTC. Time now 2017-Apr-28 10:33 UTC.
Position N 31°28' W 123°28'.
Warning: this ship's position is 12 days out of date.

Length 200 m; draft 8 m.

Type: Cargo ship. MMSI: 235058697.

Date/timePositionNaut miles runAvg speedWind from/ knotsBaromVisibWave heightAir tempDewpointWater temp
2017-Apr-16 02:29N 31°28' W 123°28'2517.4
2017-Apr-16 01:04N 31°09' W 123°09'717.4
2017-Apr-16 00:38N 31°04' W 123°03'417.0
2017-Apr-16 00:25N 31°01' W 123°00'717.5
2017-Apr-16 00:00N 30°55' W 122°55'917.7
2017-Apr-15 23:30N 30°48' W 122°49'2317.2
2017-Apr-15 22:11N 30°31' W 122°31'317.3
2017-Apr-15 22:00N 30°29' W 122°29'6316.8
2017-Apr-15 18:16N 29°46' W 121°36'14316.4
2017-Apr-15 09:32N 28°24' W 119°22'416.8
2017-Apr-15 09:19N 28°22' W 119°18'  
2017-Apr-08 16:43N 09°11' W 079°52'1 6.1
2017-Apr-08 16:30N 09°11' W 079°53'3 5.7
2017-Apr-08 16:00N 09°13' W 079°55'1 2.0
2017-Apr-08 15:30N 09°14' W 079°56'0 0.1
2017-Apr-08 15:00N 09°14' W 079°56'0 0.1
2017-Apr-08 14:00N 09°14' W 079°56'0 0.5
2017-Apr-08 13:30N 09°14' W 079°56'2 4.2
2017-Apr-08 13:00N 09°16' W 079°55'0 0.3
2017-Apr-08 12:21N 09°16' W 079°55'0 0.5
2017-Apr-08 12:00N 09°17' W 079°55'1 1.2
2017-Apr-08 11:30N 09°17' W 079°55'0 0.8
2017-Apr-08 11:00N 09°17' W 079°55'2 4.5
2017-Apr-08 10:30N 09°20' W 079°55'3 6.5
2017-Apr-08 10:00N 09°23' W 079°55'3 5.1
2017-Apr-08 09:30N 09°25' W 079°56'1 1.1
2017-Apr-08 09:00N 09°25' W 079°56'0 0.2
2017-Apr-08 08:30N 09°25' W 079°56'0 0.2
2017-Apr-08 08:00N 09°25' W 079°56'0 0.1
2017-Apr-08 07:30N 09°25' W 079°56'0 0.1
2017-Apr-08 07:00N 09°25' W 079°56'0 0.1
2017-Apr-08 06:30N 09°25' W 079°56'0 0.0
2017-Apr-08 06:00N 09°25' W 079°56'2 3.3
2017-Apr-08 05:30N 09°26' W 079°56'4 9.0
2017-Apr-08 05:00N 09°30' W 079°54'510.3
2017-Apr-08 04:30N 09°35' W 079°52'  
Track history (hours):
 
Tides and Currents Weather Stations Pressure Air Temp Water Temp Dewpoint Dewpoint Depression Visibility Wind Speed Wind Dir Waves Ship Positions

Zenith Leader

Last reported at 2017-Apr-16 02:29 UTC. Time now 2017-Apr-28 10:33 UTC.
Position N 31°28' W 123°28'.
Warning: this ship's position is 12 days out of date.

Length 200 m; draft 8 m.

Type: Cargo ship. MMSI: 235058697.

Date/timePositionNaut miles runAvg speedWind from/ knotsBaromVisibWave heightAir tempDewpointWater temp
2017-Apr-16 02:29N 31°28' W 123°28'2517.4
2017-Apr-16 01:04N 31°09' W 123°09'717.4
2017-Apr-16 00:38N 31°04' W 123°03'417.0
2017-Apr-16 00:25N 31°01' W 123°00'717.5
2017-Apr-16 00:00N 30°55' W 122°55'917.7
2017-Apr-15 23:30N 30°48' W 122°49'2317.2
2017-Apr-15 22:11N 30°31' W 122°31'317.3
2017-Apr-15 22:00N 30°29' W 122°29'6316.8
2017-Apr-15 18:16N 29°46' W 121°36'14316.4
2017-Apr-15 09:32N 28°24' W 119°22'416.8
2017-Apr-15 09:19N 28°22' W 119°18'  
2017-Apr-08 16:43N 09°11' W 079°52'1 6.1
2017-Apr-08 16:30N 09°11' W 079°53'3 5.7
2017-Apr-08 16:00N 09°13' W 079°55'1 2.0
2017-Apr-08 15:30N 09°14' W 079°56'0 0.1
2017-Apr-08 15:00N 09°14' W 079°56'0 0.1
2017-Apr-08 14:00N 09°14' W 079°56'0 0.5
2017-Apr-08 13:30N 09°14' W 079°56'2 4.2
2017-Apr-08 13:00N 09°16' W 079°55'0 0.3
2017-Apr-08 12:21N 09°16' W 079°55'0 0.5
2017-Apr-08 12:00N 09°17' W 079°55'1 1.2
2017-Apr-08 11:30N 09°17' W 079°55'0 0.8
2017-Apr-08 11:00N 09°17' W 079°55'2 4.5
2017-Apr-08 10:30N 09°20' W 079°55'3 6.5
2017-Apr-08 10:00N 09°23' W 079°55'3 5.1
2017-Apr-08 09:30N 09°25' W 079°56'1 1.1
2017-Apr-08 09:00N 09°25' W 079°56'0 0.2
2017-Apr-08 08:30N 09°25' W 079°56'0 0.2
2017-Apr-08 08:00N 09°25' W 079°56'0 0.1
2017-Apr-08 07:30N 09°25' W 079°56'0 0.1
2017-Apr-08 07:00N 09°25' W 079°56'0 0.1
2017-Apr-08 06:30N 09°25' W 079°56'0 0.0
2017-Apr-08 06:00N 09°25' W 079°56'2 3.3
2017-Apr-08 05:30N 09°26' W 079°56'4 9.0
2017-Apr-08 05:00N 09°30' W 079°54'510.3
2017-Apr-08 04:30N 09°35' W 079°52'  

Dump ship's entire track history